createdAt,value
2019-01-14T00:02:35.394Z,2.50
2019-01-14T00:07:40.069Z,2.00
2019-01-14T00:12:44.762Z,1.53
2019-01-14T00:17:49.604Z,1.90
2019-01-14T00:22:54.262Z,2.33
2019-01-14T00:27:58.928Z,2.20
2019-01-14T00:33:04.688Z,1.50
2019-01-14T00:38:09.360Z,2.40
2019-01-14T00:43:14.032Z,2.27
2019-01-14T00:48:18.704Z,2.67
2019-01-14T00:53:23.384Z,2.37
2019-01-14T00:58:28.345Z,1.90
2019-01-14T01:03:33.030Z,2.40
2019-01-14T01:08:37.770Z,2.33
2019-01-14T01:13:42.535Z,2.37
2019-01-14T01:18:47.316Z,2.87
2019-01-14T01:23:52.010Z,2.97
2019-01-14T01:28:56.640Z,3.20
2019-01-14T01:34:01.338Z,2.67
2019-01-14T01:39:07.757Z,3.20
2019-01-14T01:44:12.434Z,2.60
2019-01-14T01:49:17.419Z,2.72
2019-01-14T01:54:22.381Z,2.90
2019-01-14T01:59:27.083Z,2.63
2019-01-14T02:04:31.830Z,2.70
2019-01-14T02:09:36.539Z,2.17
2019-01-14T02:14:41.657Z,2.43
2019-01-14T02:19:46.323Z,3.40
2019-01-14T02:24:50.959Z,2.60
2019-01-14T02:29:56.183Z,2.47
2019-01-14T02:35:00.878Z,3.93
2019-01-14T02:40:07.673Z,3.20
2019-01-14T02:45:12.999Z,3.70
2019-01-14T02:50:17.892Z,3.62
2019-01-14T02:55:22.645Z,2.47
2019-01-14T03:00:28.173Z,3.27
2019-01-14T03:05:32.844Z,3.67
2019-01-14T03:10:37.511Z,3.17
2019-01-14T03:15:42.183Z,2.53
2019-01-14T03:20:47.107Z,3.23
2019-01-14T03:25:58.141Z,3.30
2019-01-14T03:30:58.522Z,2.30
2019-01-14T03:36:03.329Z,2.80
2019-01-14T03:41:08.177Z,2.47
2019-01-14T03:46:12.816Z,3.03
2019-01-14T03:51:17.572Z,3.83
2019-01-14T03:56:22.248Z,3.60
2019-01-14T04:01:26.872Z,2.53
2019-01-14T04:06:31.577Z,2.37
2019-01-14T04:11:36.391Z,3.53
2019-01-14T04:16:41.216Z,2.63
2019-01-14T04:21:45.880Z,3.13
2019-01-14T04:26:50.624Z,2.67
2019-01-14T04:31:55.307Z,2.63
2019-01-14T04:37:00.016Z,1.43
2019-01-14T04:42:04.844Z,2.23
2019-01-14T04:47:09.512Z,2.30
2019-01-14T04:52:14.252Z,2.40
2019-01-14T04:57:18.940Z,2.30
2019-01-14T05:02:23.624Z,1.73
2019-01-14T05:07:29.689Z,2.57
2019-01-14T05:12:34.663Z,2.07
2019-01-14T05:17:39.396Z,2.30
2019-01-14T05:22:44.295Z,1.53
2019-01-14T05:27:49.119Z,2.23
2019-01-14T05:32:53.847Z,1.90
2019-01-14T05:37:58.573Z,2.00
2019-01-14T05:43:03.333Z,1.87
2019-01-14T05:48:08.210Z,1.80
2019-01-14T05:53:13.027Z,1.87
2019-01-14T05:58:17.800Z,1.70
2019-01-14T06:03:22.553Z,2.13
2019-01-14T06:08:27.269Z,1.50
2019-01-14T06:13:32.012Z,1.90
2019-01-14T06:18:36.719Z,1.77
2019-01-14T06:23:41.452Z,1.63
2019-01-14T06:28:46.107Z,1.90
2019-01-14T06:33:51.178Z,2.10
2019-01-14T06:38:55.998Z,1.73
2019-01-14T06:44:00.972Z,2.00
2019-01-14T06:49:05.702Z,2.03
2019-01-14T06:54:10.420Z,2.00
2019-01-14T06:59:15.113Z,1.23
2019-01-14T07:04:19.850Z,1.20
2019-01-14T07:09:24.513Z,1.50
2019-01-14T07:14:29.243Z,3.17
2019-01-14T07:19:33.961Z,2.57
2019-01-14T07:24:38.630Z,1.40
2019-01-14T07:29:43.312Z,1.80
2019-01-14T07:34:48.160Z,1.57
2019-01-14T07:39:52.928Z,1.20
2019-01-14T07:44:57.665Z,1.47
2019-01-14T07:50:02.432Z,1.73
2019-01-14T07:55:07.346Z,1.33
2019-01-14T08:00:23.994Z,1.40
2019-01-14T08:05:28.704Z,1.57
2019-01-14T08:10:33.359Z,1.70
2019-01-14T08:15:38.113Z,2.07
2019-01-14T08:20:42.876Z,1.43
2019-01-14T08:25:47.631Z,1.83
2019-01-14T08:30:56.414Z,1.30
2019-01-14T08:36:01.434Z,1.57
2019-01-14T08:41:07.531Z,2.00
2019-01-14T08:46:12.231Z,2.10
2019-01-14T08:51:17.861Z,1.63
2019-01-14T08:56:22.672Z,2.57
2019-01-14T09:01:27.693Z,1.80
2019-01-14T09:06:32.367Z,1.60
2019-01-14T09:11:37.193Z,1.70
2019-01-14T09:16:42.030Z,1.50
2019-01-14T09:21:46.745Z,1.83
2019-01-14T09:26:51.407Z,2.10
2019-01-14T09:31:56.849Z,1.73
2019-01-14T09:37:01.517Z,2.33
2019-01-14T09:42:06.297Z,1.80
2019-01-14T09:47:10.993Z,1.70
2019-01-14T09:52:15.699Z,1.60
2019-01-14T09:57:20.387Z,1.20
2019-01-14T10:02:25.053Z,1.70
2019-01-14T10:07:30.141Z,1.80
2019-01-14T10:12:34.817Z,1.57
2019-01-14T10:17:40.216Z,1.70
2019-01-14T10:22:45.075Z,1.30
2019-01-14T10:27:49.936Z,1.50
2019-01-14T10:32:54.690Z,1.73
2019-01-14T10:37:59.364Z,1.40
2019-01-14T10:43:04.678Z,1.80
2019-01-14T10:48:09.426Z,1.60
2019-01-14T10:53:14.186Z,1.43
2019-01-14T10:58:18.870Z,1.00
2019-01-14T11:03:24.540Z,1.80
2019-01-14T11:08:29.329Z,1.73
2019-01-14T11:13:34.039Z,1.47
2019-01-14T11:18:47.211Z,2.13
2019-01-14T11:23:51.879Z,1.50
2019-01-14T11:28:56.606Z,1.37
2019-01-14T11:34:01.350Z,1.77
2019-01-14T11:39:17.727Z,1.30
2019-01-14T11:44:22.436Z,1.10
2019-01-14T11:49:27.178Z,1.10
2019-01-14T11:54:31.906Z,0.80
2019-01-14T11:59:36.661Z,0.87
2019-01-14T12:04:41.378Z,0.83
2019-01-14T12:09:46.070Z,1.17
2019-01-14T12:14:50.808Z,1.23
2019-01-14T12:19:55.871Z,1.30
2019-01-14T12:25:00.638Z,1.50
2019-01-14T12:30:25.050Z,1.17
2019-01-14T12:35:49.136Z,1.37
2019-01-14T12:40:53.882Z,1.00
2019-01-14T12:45:58.553Z,1.03
2019-01-14T12:51:03.206Z,0.90
2019-01-14T12:56:08.345Z,1.40
2019-01-14T13:01:12.993Z,0.80
2019-01-14T13:06:18.496Z,1.03
2019-01-14T13:11:23.419Z,1.03
2019-01-14T13:16:28.205Z,1.10
2019-01-14T13:21:33.300Z,0.93
2019-01-14T13:26:37.950Z,1.20
2019-01-14T13:31:55.000Z,0.80
2019-01-14T13:36:59.797Z,1.07
2019-01-14T13:42:04.639Z,0.80
2019-01-14T13:47:09.402Z,0.90
2019-01-14T13:52:14.073Z,1.17
2019-01-14T13:57:18.763Z,1.20
2019-01-14T14:02:23.536Z,0.80
2019-01-14T14:07:28.304Z,1.00
2019-01-14T14:12:32.974Z,1.43
2019-01-14T14:17:37.703Z,0.90
2019-01-14T14:22:42.390Z,0.97
2019-01-14T14:27:47.092Z,1.27
2019-01-14T14:32:53.719Z,1.67
2019-01-14T14:38:01.434Z,1.30
2019-01-14T14:43:05.444Z,1.30
2019-01-14T14:48:10.168Z,1.10
2019-01-14T14:53:14.850Z,1.10
2019-01-14T14:58:19.776Z,0.80
2019-01-14T15:03:36.823Z,1.03
2019-01-14T15:08:41.492Z,1.33
2019-01-14T15:13:46.266Z,1.00
2019-01-14T15:18:50.923Z,1.17
2019-01-14T15:23:55.877Z,1.07
2019-01-14T15:29:00.811Z,1.10
2019-01-14T15:34:05.576Z,1.00
2019-01-14T15:39:10.617Z,0.93
2019-01-14T15:44:15.343Z,1.27
2019-01-14T15:49:20.010Z,1.10
2019-01-14T15:54:24.717Z,1.10
2019-01-14T15:59:29.388Z,1.20
2019-01-14T16:04:34.061Z,1.10
2019-01-14T16:09:38.722Z,1.23
2019-01-14T16:14:43.414Z,1.03
2019-01-14T16:19:48.104Z,1.00
2019-01-14T16:24:52.858Z,0.90
2019-01-14T16:29:57.575Z,1.00
2019-01-14T16:35:02.313Z,1.00
2019-01-14T16:40:07.353Z,1.10
2019-01-14T16:45:32.600Z,1.10
2019-01-14T16:50:37.347Z,1.00
2019-01-14T16:56:01.124Z,1.13
2019-01-14T17:01:05.967Z,1.20
2019-01-14T17:06:11.002Z,1.10
2019-01-14T17:11:15.712Z,1.37
2019-01-14T17:16:20.527Z,1.10
2019-01-14T17:21:25.277Z,1.20
2019-01-14T17:26:29.954Z,1.13
2019-01-14T17:31:34.630Z,1.27
2019-01-14T17:36:39.343Z,1.20
2019-01-14T17:41:45.184Z,1.10
2019-01-14T17:46:49.875Z,1.10
2019-01-14T17:51:54.671Z,1.20
2019-01-14T17:56:59.349Z,1.30
2019-01-14T18:02:04.644Z,1.13
2019-01-14T18:07:09.353Z,1.30
2019-01-14T18:12:14.365Z,1.13
2019-01-14T18:17:19.345Z,1.30
2019-01-14T18:22:24.163Z,1.70
2019-01-14T18:27:29.413Z,1.50
2019-01-14T18:32:34.117Z,1.23
2019-01-14T18:37:38.964Z,1.30
2019-01-14T18:42:43.884Z,1.30
2019-01-14T18:47:49.222Z,1.37
2019-01-14T18:52:54.021Z,1.40
2019-01-14T18:57:58.719Z,1.93
2019-01-14T19:03:03.476Z,1.27
2019-01-14T19:08:08.173Z,1.50
2019-01-14T19:13:12.905Z,1.50
2019-01-14T19:18:17.668Z,1.30
2019-01-14T19:23:22.472Z,1.60
2019-01-14T19:28:27.181Z,1.93
2019-01-14T19:33:32.169Z,2.37
2019-01-14T19:38:36.858Z,1.67
2019-01-14T19:43:41.552Z,1.93
2019-01-14T19:48:46.375Z,1.93
2019-01-14T19:53:51.084Z,1.93
2019-01-14T19:58:55.872Z,2.07
2019-01-14T20:04:00.551Z,1.80
2019-01-14T20:09:09.167Z,1.70
2019-01-14T20:14:20.726Z,1.80
2019-01-14T20:19:30.232Z,1.87
2019-01-14T20:24:38.867Z,1.80
2019-01-14T20:29:46.627Z,2.03
2019-01-14T20:34:59.050Z,1.77
2019-01-14T20:40:07.515Z,2.80
2019-01-14T20:45:16.706Z,1.75
2019-01-14T20:50:22.273Z,1.67
2019-01-14T20:55:27.401Z,2.43
2019-01-14T21:00:32.429Z,2.27
2019-01-14T21:05:37.494Z,2.10
2019-01-14T21:10:54.446Z,1.83
2019-01-14T21:16:03.018Z,1.80
2019-01-14T21:21:07.317Z,1.60
2019-01-14T21:26:12.416Z,1.90
2019-01-14T21:31:17.375Z,1.93
2019-01-14T21:36:22.224Z,2.03
2019-01-14T21:41:31.142Z,1.80
2019-01-14T21:46:33.749Z,1.67
2019-01-14T21:51:38.730Z,1.83
2019-01-14T21:56:43.663Z,2.00
2019-01-14T22:01:48.914Z,1.80
2019-01-14T22:06:53.974Z,1.90
2019-01-14T22:11:58.838Z,2.60
2019-01-14T22:17:03.722Z,2.27
2019-01-14T22:22:08.702Z,2.40
2019-01-14T22:27:14.018Z,2.13
2019-01-14T22:32:18.870Z,1.67
2019-01-14T22:37:23.893Z,1.90
2019-01-14T22:42:28.862Z,1.77
2019-01-14T22:47:33.746Z,1.80
2019-01-14T22:52:38.808Z,2.17
2019-01-14T22:57:44.401Z,1.70
2019-01-14T23:02:49.432Z,2.17
2019-01-14T23:07:54.322Z,2.37
2019-01-14T23:12:59.290Z,1.90
2019-01-14T23:18:04.768Z,1.80
2019-01-14T23:23:09.813Z,2.37
2019-01-14T23:28:14.724Z,1.63
2019-01-14T23:33:19.588Z,1.90
2019-01-14T23:38:24.508Z,1.83
2019-01-14T23:43:29.497Z,2.30
2019-01-14T23:48:34.546Z,1.57
2019-01-14T23:53:39.426Z,1.67
2019-01-14T23:58:44.543Z,1.90
